< < Back
Terminal Aerodrome Forecast


Current Version              Previous Versions:   1  2  3  4  5  6  7  8  9  

Terminal Aerodrome Forecast

052
FTUS42 KGSP 301700
TAFHKY
TAF
KHKY 301720Z 3018/0118 28003KT P6SM SKC
     FM302100 21003KT P6SM FEW040
     FM010900 00000KT 2SM BR FEW040
     FM011300 18003KT P6SM FEW040=



Latest METAR

281
SAUS70 KWBC 302300 RRK
MTRHKY
METAR KHKY 302253Z 00000KT 10SM FEW060 24/16 A2989 RMK AO2 SLP103
T02440156


USA.gov is the U.S. government's official web portal to all federal, state and local government web resources and services.